SKCG/CTG METAR and TAF weather

Enter ICAO airport designator
Station Type Date Time Source
SKCG METAR 2019/10/15 09:00 UTC NOAA

SKCG 150900Z VRB02KT 9999 FEW015 BKN200 28/25 A2985 REDZ


Station Type Date Time Source
SKCG Decoded METAR 2019/10/15 09:00 UTC NOAA

Cartagena / Rafael Nunez, Colombia (SKCG) 10-27N 075-31W 12M
Oct 15, 2019 - 05:00 AM EDT / 2019.10.15 0900 UTC
Wind: Variable at 2 MPH (2 KT):0
Visibility: greater than 7 mile(s):0
Sky conditions: mostly cloudy
Temperature: 82 F (28 C)
Dew Point: 77 F (25 C)
Relative Humidity: 83%
Pressure (altimeter): 29.85 in. Hg (1010 hPa)
ob: SKCG 150900Z VRB02KT 9999 FEW015 BKN200 28/25 A2985 REDZ
cycle: 9

Station Type Date Time Source
SKCG TAF 2019/10/15 06:50 UTC NOAA

TAF SKCG 150430Z 1506/1606VRB02KT 9999 FEW015 SCT080
BECMG 1515/1517 34012KT PROB40
TEMPO 1519/1522 TS SCT017CB TX32/1519Z TN24/1511Z

Example: see airport list